createdAt,value
2019-02-17T00:00:42.259Z,138.63
2019-02-17T00:03:25.939Z,30.53
2019-02-17T00:06:08.218Z,13.73
2019-02-17T00:08:50.362Z,11.50
2019-02-17T00:11:32.169Z,12.23
2019-02-17T00:14:14.062Z,12.43
2019-02-17T00:16:56.111Z,10.23
2019-02-17T00:19:38.193Z,10.43
2019-02-17T00:22:08.554Z,10.70
2019-02-17T00:24:59.350Z,10.33
2019-02-17T00:27:42.933Z,8.83
2019-02-17T00:30:25.354Z,10.07
2019-02-17T00:33:07.531Z,10.90
2019-02-17T00:35:49.260Z,10.87
2019-02-17T00:38:30.991Z,11.63
2019-02-17T00:41:12.835Z,9.30
2019-02-17T00:43:54.778Z,11.17
2019-02-17T00:46:36.371Z,9.97
2019-02-17T00:49:18.026Z,11.30
2019-02-17T00:52:00.082Z,10.23
2019-02-17T00:54:41.753Z,11.33
2019-02-17T00:57:24.058Z,10.93
2019-02-17T01:00:05.923Z,12.03
2019-02-17T01:02:47.634Z,11.10
2019-02-17T01:05:29.778Z,12.43
2019-02-17T01:08:12.122Z,13.47
2019-02-17T01:10:54.383Z,14.97
2019-02-17T01:13:36.463Z,11.57
2019-02-17T01:16:18.131Z,10.97
2019-02-17T01:18:59.962Z,10.43
2019-02-17T01:21:41.966Z,11.90
2019-02-17T01:24:23.842Z,10.53
2019-02-17T01:27:05.831Z,8.90
2019-02-17T01:29:47.815Z,9.80
2019-02-17T01:32:29.506Z,7.57
2019-02-17T01:35:11.794Z,8.87
2019-02-17T01:37:54.050Z,9.40
2019-02-17T01:40:36.106Z,13.73
2019-02-17T01:43:17.986Z,16.57
2019-02-17T01:45:59.702Z,16.77
2019-02-17T01:48:41.597Z,12.13
2019-02-17T01:51:23.566Z,14.97
2019-02-17T01:54:05.210Z,14.40
2019-02-17T01:56:47.162Z,11.27
2019-02-17T01:59:30.903Z,13.80
2019-02-17T02:02:13.143Z,12.47
2019-02-17T02:04:55.342Z,13.27
2019-02-17T02:07:37.147Z,10.50
2019-02-17T02:10:19.091Z,15.53
2019-02-17T02:13:00.702Z,13.53
2019-02-17T02:15:42.422Z,12.23
2019-02-17T02:18:24.406Z,12.23
2019-02-17T02:21:06.169Z,10.13
2019-02-17T02:23:47.950Z,12.37
2019-02-17T02:26:30.394Z,13.07
2019-02-17T02:29:12.802Z,14.30
2019-02-17T02:31:55.008Z,10.50
2019-02-17T02:34:36.942Z,13.67
2019-02-17T02:37:18.914Z,10.83
2019-02-17T02:40:00.730Z,13.00
2019-02-17T02:42:43.107Z,10.60
2019-02-17T02:45:25.018Z,12.87
2019-02-17T02:48:06.963Z,10.37
2019-02-17T02:50:48.619Z,11.33
2019-02-17T02:53:30.577Z,11.30
2019-02-17T02:56:12.710Z,9.33
2019-02-17T02:58:54.455Z,12.87
2019-02-17T03:01:36.742Z,10.10
2019-02-17T03:04:18.757Z,15.07
2019-02-17T03:07:07.073Z,17.67
2019-02-17T03:09:50.230Z,14.70
2019-02-17T03:12:32.003Z,16.23
2019-02-17T03:15:13.796Z,16.57
2019-02-17T03:17:55.854Z,17.00
2019-02-17T03:20:38.028Z,15.57
2019-02-17T03:23:19.963Z,16.93
2019-02-17T03:26:01.759Z,13.03
2019-02-17T03:28:44.013Z,16.43
2019-02-17T03:31:26.315Z,14.53
2019-02-17T03:34:08.080Z,10.10
2019-02-17T03:36:50.296Z,10.57
2019-02-17T03:39:32.546Z,12.20
2019-02-17T03:42:12.998Z,11.70
2019-02-17T03:45:02.490Z,11.87
2019-02-17T03:47:45.490Z,9.70
2019-02-17T03:50:27.718Z,11.80
2019-02-17T03:53:10.190Z,9.23
2019-02-17T03:55:51.946Z,10.13
2019-02-17T03:58:34.423Z,7.10
2019-02-17T04:01:16.650Z,9.57
2019-02-17T04:03:58.807Z,9.13
2019-02-17T04:06:40.957Z,8.23
2019-02-17T04:09:23.030Z,9.17
2019-02-17T04:12:04.970Z,9.23
2019-02-17T04:14:47.458Z,9.63
2019-02-17T04:17:29.561Z,10.00
2019-02-17T04:20:11.914Z,9.93
2019-02-17T04:22:53.914Z,8.07
2019-02-17T04:25:24.228Z,12.33
2019-02-17T04:28:15.090Z,30.07
2019-02-17T04:30:58.478Z,30.50
2019-02-17T04:33:40.294Z,37.97
2019-02-17T04:36:20.819Z,27.10
2019-02-17T04:39:10.230Z,18.97
2019-02-17T04:41:54.031Z,19.10
2019-02-17T04:44:36.606Z,19.67
2019-02-17T04:47:19.194Z,20.50
2019-02-17T04:50:01.035Z,17.80
2019-02-17T04:52:42.903Z,13.57
2019-02-17T04:55:25.139Z,20.43
2019-02-17T04:58:07.248Z,22.57
2019-02-17T05:00:50.068Z,42.17
2019-02-17T05:03:32.500Z,44.97
2019-02-17T05:06:14.217Z,73.33
2019-02-17T05:08:56.611Z,54.00
2019-02-17T05:11:38.436Z,25.00
2019-02-17T05:14:20.326Z,23.33
2019-02-17T05:17:01.958Z,25.03
2019-02-17T05:19:43.707Z,20.60
2019-02-17T05:22:25.821Z,21.80
2019-02-17T05:25:07.694Z,20.40
2019-02-17T05:27:49.324Z,14.83
2019-02-17T05:30:31.613Z,11.67
2019-02-17T05:33:13.808Z,11.07
2019-02-17T05:35:55.534Z,10.33
2019-02-17T05:38:35.990Z,10.60
2019-02-17T05:41:25.330Z,13.93
2019-02-17T05:44:08.465Z,12.87
2019-02-17T05:46:50.594Z,12.30
2019-02-17T05:49:32.470Z,11.10
2019-02-17T05:52:14.422Z,13.73
2019-02-17T05:54:56.585Z,9.70
2019-02-17T05:57:38.890Z,10.23
2019-02-17T06:00:23.559Z,10.90
2019-02-17T06:03:06.029Z,11.20
2019-02-17T06:05:47.987Z,9.50
2019-02-17T06:08:30.567Z,10.37
2019-02-17T06:11:12.404Z,9.33
2019-02-17T06:13:54.478Z,11.57
2019-02-17T06:16:36.818Z,14.03
2019-02-17T06:19:18.763Z,9.97
2019-02-17T06:22:01.050Z,11.50
2019-02-17T06:24:42.710Z,13.50
2019-02-17T06:27:24.702Z,11.10
2019-02-17T06:30:07.242Z,13.10
2019-02-17T06:32:49.230Z,11.53
2019-02-17T06:35:31.078Z,11.40
2019-02-17T06:38:13.302Z,10.63
2019-02-17T06:40:55.510Z,11.27
2019-02-17T06:43:37.774Z,12.90
2019-02-17T06:46:24.250Z,10.97
2019-02-17T06:49:06.055Z,10.40
2019-02-17T06:51:47.710Z,6.73
2019-02-17T06:54:29.358Z,12.20
2019-02-17T06:57:15.659Z,13.23
2019-02-17T07:03:04.035Z,9.53
2019-02-17T07:06:10.934Z,10.10
2019-02-17T07:08:54.336Z,11.13
2019-02-17T07:11:36.426Z,10.60
2019-02-17T07:14:18.835Z,11.23
2019-02-17T07:17:00.902Z,12.90
2019-02-17T07:19:42.782Z,11.80
2019-02-17T07:22:25.175Z,13.50
2019-02-17T07:25:07.073Z,9.80
2019-02-17T07:27:48.799Z,10.73
2019-02-17T07:30:30.597Z,9.63
2019-02-17T07:33:13.030Z,11.50
2019-02-17T07:35:55.162Z,11.50
2019-02-17T07:38:36.810Z,12.70
2019-02-17T07:41:18.958Z,13.93
2019-02-17T07:44:00.803Z,13.50
2019-02-17T07:46:42.738Z,14.37
2019-02-17T07:49:24.839Z,14.47
2019-02-17T07:52:07.194Z,12.83
2019-02-17T07:54:48.912Z,16.10
2019-02-17T07:57:30.985Z,14.30
2019-02-17T08:00:13.134Z,12.70
2019-02-17T08:02:55.036Z,14.27
2019-02-17T08:05:37.190Z,14.30
2019-02-17T08:08:19.064Z,16.67
2019-02-17T08:11:04.085Z,14.67
2019-02-17T08:13:45.045Z,14.30
2019-02-17T08:16:27.397Z,11.57
2019-02-17T08:19:09.414Z,15.37
2019-02-17T08:21:51.339Z,13.30
2019-02-17T08:24:33.518Z,14.30
2019-02-17T08:27:15.650Z,12.23
2019-02-17T08:29:58.186Z,11.47
2019-02-17T08:32:39.880Z,14.33
2019-02-17T08:35:21.991Z,14.27
2019-02-17T08:38:03.989Z,12.60
2019-02-17T08:40:45.842Z,12.97
2019-02-17T08:43:28.349Z,14.17
2019-02-17T08:46:10.262Z,20.70
2019-02-17T08:48:51.985Z,18.50
2019-02-17T08:51:34.011Z,24.93
2019-02-17T08:54:15.794Z,27.93
2019-02-17T08:56:58.070Z,38.90
2019-02-17T09:03:02.178Z,26.27
2019-02-17T09:05:44.591Z,11.93
2019-02-17T09:08:26.965Z,13.40
2019-02-17T09:11:09.320Z,15.30
2019-02-17T09:13:51.726Z,14.83
2019-02-17T09:16:33.733Z,14.20
2019-02-17T09:19:15.664Z,13.83
2019-02-17T09:21:57.718Z,12.33
2019-02-17T09:24:39.538Z,9.63
2019-02-17T09:27:21.449Z,8.93
2019-02-17T09:30:03.786Z,10.27
2019-02-17T09:32:46.202Z,12.97
2019-02-17T09:35:28.260Z,9.60
2019-02-17T09:38:10.286Z,12.13
2019-02-17T09:40:52.282Z,12.90
2019-02-17T09:43:34.467Z,26.00
2019-02-17T09:46:16.110Z,12.97
2019-02-17T09:48:58.074Z,15.30
2019-02-17T09:51:40.238Z,6.63
2019-02-17T09:54:22.794Z,49.67
2019-02-17T09:57:03.260Z,51.83
2019-02-17T09:59:52.673Z,12.93
2019-02-17T10:02:36.338Z,12.77
2019-02-17T10:05:18.486Z,16.70
2019-02-17T10:08:00.739Z,18.30
2019-02-17T10:10:43.146Z,19.53
2019-02-17T10:13:25.268Z,10.63
2019-02-17T10:16:07.124Z,8.17
2019-02-17T10:18:49.427Z,14.03
2019-02-17T10:21:31.465Z,8.77
2019-02-17T10:24:13.310Z,8.33
2019-02-17T10:26:55.646Z,7.10
2019-02-17T10:29:37.299Z,8.07
2019-02-17T10:32:19.254Z,7.17
2019-02-17T10:35:00.938Z,8.30
2019-02-17T10:37:42.731Z,8.47
2019-02-17T10:40:24.598Z,8.60
2019-02-17T10:43:06.430Z,7.77
2019-02-17T10:45:48.397Z,6.07
2019-02-17T10:48:30.363Z,8.83
2019-02-17T10:51:12.270Z,8.17
2019-02-17T10:53:53.990Z,7.67
2019-02-17T10:56:35.794Z,8.70
2019-02-17T10:59:17.818Z,8.17
2019-02-17T11:02:00.555Z,8.23
2019-02-17T11:04:42.450Z,5.87
2019-02-17T11:07:24.302Z,7.27
2019-02-17T11:10:05.962Z,9.33
2019-02-17T11:12:48.274Z,7.33
2019-02-17T11:15:29.990Z,8.47
2019-02-17T11:18:12.356Z,9.07
2019-02-17T11:20:54.263Z,9.10
2019-02-17T11:23:36.435Z,6.40
2019-02-17T11:26:18.098Z,8.03
2019-02-17T11:29:00.246Z,5.23
2019-02-17T11:31:42.322Z,9.20
2019-02-17T11:34:24.577Z,8.47
2019-02-17T11:37:08.575Z,6.60
2019-02-17T11:39:50.462Z,7.47
2019-02-17T11:42:32.214Z,7.10
2019-02-17T11:45:14.826Z,9.93
2019-02-17T11:47:56.669Z,7.60
2019-02-17T11:50:38.514Z,8.17
2019-02-17T11:53:20.394Z,6.87
2019-02-17T11:56:02.614Z,9.53
2019-02-17T11:58:44.478Z,7.40
2019-02-17T12:01:26.474Z,7.73
2019-02-17T12:04:08.342Z,10.10
2019-02-17T12:06:50.040Z,6.60
2019-02-17T12:09:32.203Z,6.97
2019-02-17T12:12:14.218Z,8.77
2019-02-17T12:14:56.066Z,7.17
2019-02-17T12:17:38.510Z,5.57
2019-02-17T12:24:06.177Z,6.67
2019-02-17T12:27:07.094Z,8.87
2019-02-17T12:30:16.880Z,8.57
2019-02-17T12:33:00.076Z,7.80
2019-02-17T12:35:42.138Z,8.33
2019-02-17T12:38:23.742Z,8.30
2019-02-17T12:41:05.914Z,8.60
2019-02-17T12:43:47.552Z,8.70
2019-02-17T12:46:29.771Z,10.77
2019-02-17T12:49:12.331Z,7.40
2019-02-17T12:51:54.083Z,8.80
2019-02-17T12:54:36.228Z,7.53
2019-02-17T12:57:18.056Z,8.13
2019-02-17T12:59:59.942Z,10.23
2019-02-17T13:02:41.805Z,15.40
2019-02-17T13:05:24.114Z,8.30
2019-02-17T13:08:04.671Z,8.90
2019-02-17T13:10:47.078Z,8.77
2019-02-17T13:13:29.021Z,7.17
2019-02-17T13:16:11.824Z,7.97
2019-02-17T13:18:54.078Z,6.83
2019-02-17T13:21:35.794Z,10.87
2019-02-17T13:24:17.831Z,11.13
2019-02-17T13:27:00.010Z,8.90
2019-02-17T13:29:41.873Z,5.30
2019-02-17T13:32:23.918Z,8.80
2019-02-17T13:35:07.025Z,8.20
2019-02-17T13:37:48.834Z,8.83
2019-02-17T13:40:30.920Z,15.43
2019-02-17T13:43:12.645Z,10.40
2019-02-17T13:45:54.674Z,15.87
2019-02-17T13:48:36.474Z,8.23
2019-02-17T13:51:18.302Z,9.80
2019-02-17T13:54:00.775Z,10.97
2019-02-17T13:56:42.728Z,11.40
2019-02-17T13:59:25.167Z,12.60
2019-02-17T14:02:07.374Z,11.80
2019-02-17T14:04:49.153Z,12.97
2019-02-17T14:07:31.078Z,8.93
2019-02-17T14:10:13.002Z,10.33
2019-02-17T14:12:55.005Z,7.17
2019-02-17T14:15:37.292Z,8.77
2019-02-17T14:18:19.256Z,5.87
2019-02-17T14:21:01.102Z,9.37
2019-02-17T14:23:42.827Z,8.47
2019-02-17T14:26:24.961Z,8.67
2019-02-17T14:29:07.294Z,11.00
2019-02-17T14:31:49.646Z,13.47
2019-02-17T14:34:31.527Z,11.93
2019-02-17T14:37:13.674Z,10.10
2019-02-17T14:39:55.494Z,12.53
2019-02-17T14:42:37.495Z,23.37
2019-02-17T14:45:19.491Z,10.57
2019-02-17T14:48:01.843Z,8.37
2019-02-17T14:50:43.575Z,8.10
2019-02-17T14:53:25.554Z,7.67
2019-02-17T14:56:07.359Z,9.50
2019-02-17T14:58:49.230Z,8.30
2019-02-17T15:01:32.020Z,7.97
2019-02-17T15:04:13.888Z,8.90
2019-02-17T15:06:55.970Z,8.40
2019-02-17T15:09:38.024Z,8.97
2019-02-17T15:12:20.077Z,9.73
2019-02-17T15:15:02.199Z,9.90
2019-02-17T15:17:44.215Z,8.73
2019-02-17T15:20:26.915Z,12.23
2019-02-17T15:23:09.227Z,13.67
2019-02-17T15:25:51.098Z,12.87
2019-02-17T15:28:33.499Z,11.77
2019-02-17T15:31:15.447Z,15.63
2019-02-17T15:33:57.274Z,11.97
2019-02-17T15:36:39.215Z,9.37
2019-02-17T15:39:21.198Z,10.33
2019-02-17T15:42:03.263Z,7.83
2019-02-17T15:44:45.383Z,8.23
2019-02-17T15:47:27.463Z,8.43
2019-02-17T15:50:09.298Z,9.43
2019-02-17T15:52:51.388Z,10.50
2019-02-17T15:55:31.889Z,12.27
2019-02-17T15:58:21.302Z,22.80
2019-02-17T16:01:05.314Z,25.87
2019-02-17T16:03:47.031Z,25.53
2019-02-17T16:06:29.417Z,31.63
2019-02-17T16:09:09.798Z,26.27
2019-02-17T16:11:51.999Z,23.17
2019-02-17T16:14:34.550Z,20.70
2019-02-17T16:17:16.403Z,18.90
2019-02-17T16:19:58.249Z,17.40
2019-02-17T16:22:40.334Z,21.23
2019-02-17T16:25:22.211Z,25.63
2019-02-17T16:28:04.538Z,20.90
2019-02-17T16:30:46.552Z,17.10
2019-02-17T16:33:28.266Z,19.13
2019-02-17T16:36:10.267Z,19.00
2019-02-17T16:38:52.078Z,18.50
2019-02-17T16:41:34.414Z,23.40
2019-02-17T16:44:16.434Z,24.83
2019-02-17T16:46:58.038Z,23.57
2019-02-17T16:49:40.221Z,18.70
2019-02-17T16:52:10.637Z,18.40
2019-02-17T16:55:01.474Z,23.20
2019-02-17T16:57:43.539Z,17.37
2019-02-17T17:00:25.610Z,17.30
2019-02-17T17:03:07.702Z,30.77
2019-02-17T17:05:49.874Z,32.70
2019-02-17T17:08:31.984Z,29.20
2019-02-17T17:11:14.270Z,34.23
2019-02-17T17:13:57.071Z,37.77
2019-02-17T17:16:38.886Z,34.13
2019-02-17T17:19:21.430Z,38.13
2019-02-17T17:22:03.943Z,43.30
2019-02-17T17:24:46.206Z,43.60
2019-02-17T17:27:28.438Z,66.20
2019-02-17T17:29:59.098Z,52.87
2019-02-17T17:32:50.061Z,42.97
2019-02-17T17:35:33.339Z,32.77
2019-02-17T17:38:15.330Z,29.10
2019-02-17T17:40:57.214Z,30.40
2019-02-17T17:43:38.931Z,27.57
2019-02-17T17:46:21.258Z,28.30
2019-02-17T17:49:03.343Z,27.53
2019-02-17T17:51:45.418Z,23.10
2019-02-17T17:54:28.070Z,25.50
2019-02-17T17:57:09.819Z,22.97
2019-02-17T17:59:51.663Z,24.47
2019-02-17T18:02:33.979Z,30.57
2019-02-17T18:05:15.906Z,32.07
2019-02-17T18:07:57.712Z,30.47
2019-02-17T18:10:40.022Z,22.13
2019-02-17T18:13:22.135Z,21.87
2019-02-17T18:16:04.285Z,19.87
2019-02-17T18:18:46.467Z,17.60
2019-02-17T18:21:28.574Z,24.93
2019-02-17T18:24:10.526Z,24.23
2019-02-17T18:26:52.447Z,17.90
2019-02-17T18:29:34.201Z,16.73
2019-02-17T18:32:16.269Z,21.77
2019-02-17T18:34:58.298Z,22.60
2019-02-17T18:37:40.574Z,21.70
2019-02-17T18:40:22.765Z,18.70
2019-02-17T18:43:04.703Z,17.60
2019-02-17T18:45:47.078Z,22.73
2019-02-17T18:48:29.726Z,44.47
2019-02-17T18:51:13.043Z,40.40
2019-02-17T18:53:53.622Z,42.50
2019-02-17T18:56:43.094Z,62.17
2019-02-17T18:59:27.044Z,79.43
2019-02-17T19:02:08.902Z,45.47
2019-02-17T19:04:51.867Z,34.13
2019-02-17T19:07:34.490Z,35.70
2019-02-17T19:10:16.994Z,75.40
2019-02-17T19:12:59.657Z,51.10
2019-02-17T19:15:41.573Z,86.63
2019-02-17T19:18:23.495Z,90.40
2019-02-17T19:21:05.107Z,99.03
2019-02-17T19:23:47.476Z,51.20
2019-02-17T19:26:29.756Z,31.97
2019-02-17T19:29:11.456Z,37.17
2019-02-17T19:31:53.258Z,36.80
2019-02-17T19:34:35.259Z,31.83
2019-02-17T19:37:17.478Z,32.63
2019-02-17T19:39:59.472Z,34.67
2019-02-17T19:42:41.514Z,36.63
2019-02-17T19:45:23.766Z,33.27
2019-02-17T19:48:05.590Z,26.77
2019-02-17T19:50:47.618Z,27.43
2019-02-17T19:53:30.066Z,27.97
2019-02-17T19:56:12.928Z,26.53
2019-02-17T19:58:55.337Z,22.53
2019-02-17T20:01:37.813Z,26.23
2019-02-17T20:04:31.931Z,21.50
2019-02-17T20:07:15.961Z,21.50
2019-02-17T20:09:58.024Z,23.50
2019-02-17T20:12:39.926Z,33.80
2019-02-17T20:15:23.258Z,118.43
2019-02-17T20:18:05.394Z,60.23
2019-02-17T20:20:47.970Z,86.80
2019-02-17T20:23:30.614Z,42.10
2019-02-17T20:26:12.769Z,25.57
2019-02-17T20:28:57.231Z,24.57
2019-02-17T20:31:38.471Z,58.67
2019-02-17T20:34:20.989Z,51.27
2019-02-17T20:37:02.845Z,84.00
2019-02-17T20:39:45.113Z,39.43
2019-02-17T20:42:27.578Z,23.80
2019-02-17T20:45:09.662Z,43.93
2019-02-17T20:47:51.596Z,52.07
2019-02-17T20:50:33.533Z,78.77
2019-02-17T20:53:15.407Z,26.83
2019-02-17T20:55:56.904Z,19.20
2019-02-17T20:58:46.394Z,19.57
2019-02-17T21:01:29.871Z,17.60
2019-02-17T21:04:11.570Z,22.07
2019-02-17T21:06:53.234Z,27.23
2019-02-17T21:09:35.508Z,26.13
2019-02-17T21:12:18.430Z,33.40
2019-02-17T21:15:01.212Z,26.03
2019-02-17T21:17:43.193Z,21.67
2019-02-17T21:20:24.975Z,24.37
2019-02-17T21:22:55.371Z,24.97
2019-02-17T21:25:44.779Z,22.03
2019-02-17T21:28:35.618Z,23.30
2019-02-17T21:31:26.478Z,28.77
2019-02-17T21:36:59.718Z,31.00
2019-02-17T21:39:50.528Z,36.87
2019-02-17T21:42:33.602Z,33.67
2019-02-17T21:45:15.683Z,34.17
2019-02-17T21:47:57.671Z,32.50
2019-02-17T21:50:28.030Z,29.93
2019-02-17T21:53:20.792Z,24.10
2019-02-17T21:56:07.972Z,29.60
2019-02-17T21:58:50.118Z,27.03
2019-02-17T22:01:20.423Z,28.93
2019-02-17T22:04:09.826Z,23.40
2019-02-17T22:06:53.566Z,20.23
2019-02-17T22:09:35.396Z,17.83
2019-02-17T22:12:17.230Z,23.23
2019-02-17T22:14:58.938Z,22.90
2019-02-17T22:17:40.603Z,21.93
2019-02-17T22:20:22.642Z,21.83
2019-02-17T22:23:04.623Z,21.30
2019-02-17T22:25:46.588Z,28.40
2019-02-17T22:28:28.877Z,27.43
2019-02-17T22:31:11.154Z,29.63
2019-02-17T22:33:53.014Z,22.47
2019-02-17T22:36:43.529Z,21.73
2019-02-17T22:39:18.637Z,20.37
2019-02-17T22:41:49.003Z,20.43
2019-02-17T22:44:39.898Z,21.97
2019-02-17T22:47:11.714Z,22.10
2019-02-17T22:50:01.162Z,21.53
2019-02-17T22:52:41.737Z,17.53
2019-02-17T22:55:31.155Z,16.57
2019-02-17T22:58:01.537Z,14.43
2019-02-17T23:01:11.470Z,18.40
2019-02-17T23:03:54.823Z,22.57
2019-02-17T23:06:36.947Z,18.07
2019-02-17T23:09:46.812Z,17.13
2019-02-17T23:15:31.850Z,27.97
2019-02-17T23:18:02.174Z,77.70
2019-02-17T23:20:52.974Z,65.50
2019-02-17T23:23:36.079Z,48.73
2019-02-17T23:26:18.101Z,50.63
2019-02-17T23:29:00.005Z,63.53
2019-02-17T23:31:41.852Z,45.60
2019-02-17T23:34:22.332Z,23.97
2019-02-17T23:37:11.743Z,22.37
2019-02-17T23:39:55.507Z,21.73
2019-02-17T23:42:37.466Z,25.13
2019-02-17T23:45:19.250Z,30.80
2019-02-17T23:48:00.871Z,33.03
2019-02-17T23:50:42.971Z,32.77
2019-02-17T23:53:24.806Z,25.67
2019-02-17T23:56:06.778Z,25.17
2019-02-17T23:58:48.882Z,23.17
